Time;durP1;ratioP1;P1;durP2;ratioP2;P2;SDS_P1;SDS_P2;PMS_P1;PMS_P2;Temp;Humidity;BMP_temperature;BMP_pressure;BME280_temperature;BME280_humidity;BME280_pressure;Samples;Min_cycle;Max_cycle;Signal;HPM_P1;HPM_P2
2022/12/29 00:01:45;;;;;;;9.63;5.87;;;;;;;;;;733220;188;919411;-72
2022/12/29 00:04:11;;;;;;;11.70;6.63;;;;;;;;;;743514;186;1013186;-73
2022/12/29 00:06:37;;;;;;;8.50;6.05;;;;;;;;;;734632;190;919189;-72
2022/12/29 00:09:03;;;;;;;9.97;5.40;;;;;;;;;;757266;183;920842;-62
2022/12/29 00:11:29;;;;;;;13.13;5.57;;;;;;;;;;766118;182;928891;-68
2022/12/29 00:16:26;;;;;;;11.98;6.53;;;;;;;;;;758596;183;918985;-67
2022/12/29 00:18:52;;;;;;;9.63;5.20;;;;;;;;;;764075;183;937665;-62
2022/12/29 00:36:42;;;;;;;9.37;5.03;;;;;;;;;;750303;185;919495;-68
2022/12/29 00:44:11;;;;;;;9.30;5.77;;;;;;;;;;753470;185;915765;-68
2022/12/29 00:46:37;;;;;;;9.30;5.77;;;;;;;;;;768146;181;914903;-68
2022/12/29 00:51:34;;;;;;;12.67;6.00;;;;;;;;;;757520;184;927033;-62
2022/12/29 00:54:00;;;;;;;9.67;7.03;;;;;;;;;;752710;184;919331;-63
2022/12/29 00:56:26;;;;;;;7.10;5.00;;;;;;;;;;765343;184;919079;-68
2022/12/29 00:58:52;;;;;;;7.97;5.25;;;;;;;;;;764597;183;919346;-63
2022/12/29 01:01:18;;;;;;;10.63;5.67;;;;;;;;;;764568;183;919757;-64
2022/12/29 01:03:44;;;;;;;8.67;4.70;;;;;;;;;;770102;183;920972;-68
2022/12/29 01:06:09;;;;;;;8.50;5.20;;;;;;;;;;767155;183;818502;-68
2022/12/29 01:08:35;;;;;;;8.70;5.00;;;;;;;;;;756701;184;917951;-64
2022/12/29 01:11:02;;;;;;;9.52;5.47;;;;;;;;;;759634;185;919381;-69
2022/12/29 01:13:28;;;;;;;6.67;4.20;;;;;;;;;;755433;183;919067;-63
2022/12/29 01:15:53;;;;;;;9.00;5.05;;;;;;;;;;763836;183;816133;-68
2022/12/29 01:18:19;;;;;;;8.30;5.37;;;;;;;;;;751912;185;817516;-68
2022/12/29 01:20:45;;;;;;;12.17;6.33;;;;;;;;;;758137;185;919416;-64
2022/12/29 01:23:11;;;;;;;8.20;5.10;;;;;;;;;;758628;183;919241;-68
2022/12/29 01:25:37;;;;;;;11.17;5.23;;;;;;;;;;763291;183;919625;-68
2022/12/29 01:28:03;;;;;;;6.50;4.43;;;;;;;;;;769815;183;816813;-64
2022/12/29 01:30:28;;;;;;;7.63;4.43;;;;;;;;;;765073;183;815876;-68
2022/12/29 01:32:54;;;;;;;10.57;5.30;;;;;;;;;;764349;183;917162;-63
2022/12/29 01:35:20;;;;;;;7.40;4.53;;;;;;;;;;768364;183;916995;-69
2022/12/29 01:37:46;;;;;;;10.60;4.80;;;;;;;;;;761216;183;921285;-64
2022/12/29 01:40:12;;;;;;;9.52;4.70;;;;;;;;;;753661;184;1126551;-68
2022/12/29 01:42:38;;;;;;;8.43;5.17;;;;;;;;;;754843;183;919517;-68
2022/12/29 01:45:04;;;;;;;11.90;7.65;;;;;;;;;;777476;181;919004;-68
2022/12/29 01:47:39;;;;;;;11.07;6.07;;;;;;;;;;764375;183;914228;-69
2022/12/29 01:50:04;;;;;;;11.70;6.23;;;;;;;;;;764419;183;919262;-64
2022/12/29 01:52:30;;;;;;;11.90;5.27;;;;;;;;;;769027;183;921187;-63
2022/12/29 01:54:56;;;;;;;10.70;4.87;;;;;;;;;;756116;182;919031;-68
2022/12/29 01:57:22;;;;;;;7.77;5.70;;;;;;;;;;764024;183;919019;-63
2022/12/29 01:59:50;;;;;;;18.27;6.33;;;;;;;;;;757785;182;924533;-68
2022/12/29 02:02:15;;;;;;;8.47;5.60;;;;;;;;;;760672;184;812899;-64
2022/12/29 02:04:44;;;;;;;8.90;5.27;;;;;;;;;;760261;183;920211;-68
2022/12/29 02:07:07;;;;;;;11.63;4.50;;;;;;;;;;765793;183;895799;-68
2022/12/29 02:09:33;;;;;;;9.43;5.97;;;;;;;;;;772707;182;912371;-63
2022/12/29 02:11:59;;;;;;;9.27;5.83;;;;;;;;;;764992;182;919251;-64
2022/12/29 02:14:25;;;;;;;11.13;6.27;;;;;;;;;;758220;183;919026;-68
2022/12/29 02:16:51;;;;;;;10.33;6.07;;;;;;;;;;761449;185;915449;-68
2022/12/29 02:19:21;;;;;;;8.25;5.32;;;;;;;;;;748705;185;919123;-64
2022/12/29 02:21:51;;;;;;;8.20;6.20;;;;;;;;;;742435;188;920261;-69
2022/12/29 02:24:22;;;;;;;14.13;6.25;;;;;;;;;;749911;185;916080;-70
2022/12/29 02:27:03;;;;;;;10.70;6.13;;;;;;;;;;752078;186;919470;-63
2022/12/29 02:29:35;;;;;;;13.27;7.40;;;;;;;;;;764875;183;921859;-63
2022/12/29 02:32:03;;;;;;;8.20;5.67;;;;;;;;;;762151;186;920487;-69
2022/12/29 02:34:31;;;;;;;42.87;21.93;;;;;;;;;;754995;183;919682;-68
2022/12/29 02:37:03;;;;;;;19.83;9.80;;;;;;;;;;754091;185;818229;-64
2022/12/29 02:39:32;;;;;;;14.93;8.53;;;;;;;;;;753399;184;918862;-63
2022/12/29 02:42:04;;;;;;;70.63;26.90;;;;;;;;;;758103;184;918846;-63
2022/12/29 02:44:33;;;;;;;95.27;36.07;;;;;;;;;;752708;183;918802;-68
2022/12/29 02:46:59;;;;;;;26.17;14.13;;;;;;;;;;752613;185;918818;-70
2022/12/29 02:49:27;;;;;;;19.93;11.03;;;;;;;;;;754788;185;919517;-64
2022/12/29 02:51:54;;;;;;;22.70;12.70;;;;;;;;;;757777;185;918560;-64
2022/12/29 02:56:51;;;;;;;15.50;8.60;;;;;;;;;;751501;183;906945;-69
2022/12/29 02:59:17;;;;;;;10.13;7.55;;;;;;;;;;756167;184;919691;-64
2022/12/29 03:02:16;;;;;;;19.80;11.20;;;;;;;;;;761134;184;919684;-68
2022/12/29 03:04:19;;;;;;;18.43;9.70;;;;;;;;;;744379;186;914937;-69
2022/12/29 03:06:51;;;;;;;72.87;32.50;;;;;;;;;;755513;183;915681;-69
2022/12/29 03:09:14;;;;;;;55.23;29.00;;;;;;;;;;754460;183;919473;-68
2022/12/29 03:16:45;;;;;;;21.67;10.97;;;;;;;;;;756594;185;918514;-64
2022/12/29 03:19:11;;;;;;;23.50;13.53;;;;;;;;;;763101;182;918325;-64
2022/12/29 03:24:09;;;;;;;21.13;11.87;;;;;;;;;;762761;182;936558;-63
2022/12/29 03:26:35;;;;;;;14.02;7.95;;;;;;;;;;757683;185;917372;-64
2022/12/29 03:29:01;;;;;;;12.47;7.40;;;;;;;;;;764140;183;634398;-64
2022/12/29 03:31:26;;;;;;;15.27;7.47;;;;;;;;;;767945;183;835418;-69
2022/12/29 03:33:52;;;;;;;12.27;8.10;;;;;;;;;;766926;183;622870;-63
2022/12/29 03:36:18;;;;;;;11.30;7.03;;;;;;;;;;758700;184;623211;-65
2022/12/29 03:38:48;;;;;;;14.70;8.20;;;;;;;;;;760214;184;919028;-64
2022/12/29 03:41:13;;;;;;;17.43;9.27;;;;;;;;;;754859;184;920889;-70
2022/12/29 03:43:39;;;;;;;23.50;13.47;;;;;;;;;;757185;185;920729;-69
2022/12/29 03:46:05;;;;;;;20.23;10.37;;;;;;;;;;759478;185;920168;-70
2022/12/29 03:48:32;;;;;;;14.17;8.43;;;;;;;;;;758015;184;713531;-70
2022/12/29 03:50:57;;;;;;;12.30;7.47;;;;;;;;;;758441;185;628583;-69
2022/12/29 03:53:23;;;;;;;9.90;6.30;;;;;;;;;;758657;186;634450;-69
2022/12/29 03:55:49;;;;;;;9.67;6.43;;;;;;;;;;772640;183;611201;-70
2022/12/29 03:58:14;;;;;;;12.13;7.67;;;;;;;;;;766620;183;919542;-69
2022/12/29 04:00:40;;;;;;;16.00;9.27;;;;;;;;;;767369;182;962099;-69
2022/12/29 04:03:06;;;;;;;12.83;8.60;;;;;;;;;;769546;183;920924;-69
2022/12/29 04:05:32;;;;;;;17.53;11.17;;;;;;;;;;765096;182;922985;-69
2022/12/29 04:07:58;;;;;;;16.43;8.73;;;;;;;;;;768414;182;921686;-64
2022/12/29 04:10:24;;;;;;;16.63;9.43;;;;;;;;;;765306;182;817751;-69
2022/12/29 04:12:49;;;;;;;11.30;7.60;;;;;;;;;;756067;185;918299;-64
2022/12/29 04:15:15;;;;;;;15.98;9.77;;;;;;;;;;761679;183;919218;-64
2022/12/29 04:17:41;;;;;;;16.50;9.83;;;;;;;;;;764644;183;918749;-68
2022/12/29 04:22:39;;;;;;;15.50;7.57;;;;;;;;;;767992;182;916760;-64
2022/12/29 04:25:05;;;;;;;17.20;8.60;;;;;;;;;;757435;183;916744;-67
2022/12/29 04:27:31;;;;;;;24.43;18.20;;;;;;;;;;759203;182;919158;-69
2022/12/29 04:29:57;;;;;;;19.20;13.40;;;;;;;;;;756966;183;919100;-63
2022/12/29 04:32:23;;;;;;;16.08;11.12;;;;;;;;;;756527;185;915086;-63
2022/12/29 04:34:49;;;;;;;11.80;6.07;;;;;;;;;;759695;184;919112;-70
2022/12/29 04:37:14;;;;;;;15.77;6.57;;;;;;;;;;762313;183;917417;-64
2022/12/29 04:39:40;;;;;;;10.30;6.83;;;;;;;;;;754987;183;914505;-69
2022/12/29 04:42:06;;;;;;;9.47;6.13;;;;;;;;;;752611;185;919289;-68
2022/12/29 04:44:32;;;;;;;9.77;7.23;;;;;;;;;;758713;183;918898;-64
2022/12/29 04:46:58;;;;;;;17.23;8.33;;;;;;;;;;755334;185;920062;-69
2022/12/29 04:49:24;;;;;;;17.57;10.30;;;;;;;;;;756392;185;918762;-64
2022/12/29 04:51:49;;;;;;;17.02;11.10;;;;;;;;;;760639;185;921235;-69
2022/12/29 04:54:15;;;;;;;14.33;9.27;;;;;;;;;;756356;183;919173;-64
2022/12/29 04:56:41;;;;;;;16.30;9.67;;;;;;;;;;764577;183;919060;-68
2022/12/29 04:59:07;;;;;;;19.02;12.98;;;;;;;;;;767249;183;916288;-63
2022/12/29 05:01:33;;;;;;;23.17;11.00;;;;;;;;;;752824;184;920619;-70
2022/12/29 05:03:59;;;;;;;26.27;11.93;;;;;;;;;;756680;184;1024588;-64
2022/12/29 05:06:25;;;;;;;15.83;9.80;;;;;;;;;;767875;183;920773;-68
2022/12/29 05:08:50;;;;;;;15.57;7.53;;;;;;;;;;770857;183;919134;-63
2022/12/29 05:11:16;;;;;;;11.80;7.03;;;;;;;;;;764886;183;919003;-69
2022/12/29 05:13:42;;;;;;;10.30;7.70;;;;;;;;;;763756;183;915068;-64
2022/12/29 05:16:08;;;;;;;14.97;8.60;;;;;;;;;;768550;183;814671;-68
2022/12/29 05:18:34;;;;;;;16.73;9.10;;;;;;;;;;760278;183;919388;-64
2022/12/29 05:21:00;;;;;;;14.00;8.07;;;;;;;;;;750760;186;919161;-69
2022/12/29 05:23:25;;;;;;;15.98;10.35;;;;;;;;;;759189;186;933762;-64
2022/12/29 05:25:51;;;;;;;12.40;8.43;;;;;;;;;;759086;183;919546;-69
2022/12/29 05:28:17;;;;;;;13.30;7.53;;;;;;;;;;758210;184;916657;-64
2022/12/29 05:30:43;;;;;;;13.88;9.32;;;;;;;;;;757194;184;927430;-64
2022/12/29 05:33:11;;;;;;;11.67;8.77;;;;;;;;;;749890;182;934209;-65
2022/12/29 05:35:35;;;;;;;11.47;7.83;;;;;;;;;;759995;183;918021;-69
2022/12/29 05:38:01;;;;;;;14.30;8.33;;;;;;;;;;769196;182;919323;-69
2022/12/29 05:40:26;;;;;;;14.47;8.83;;;;;;;;;;762885;183;919205;-69
2022/12/29 05:42:52;;;;;;;13.23;7.87;;;;;;;;;;753995;185;919440;-69
2022/12/29 05:45:18;;;;;;;12.87;9.90;;;;;;;;;;755880;183;919236;-68
2022/12/29 05:47:44;;;;;;;12.03;8.20;;;;;;;;;;759503;184;919813;-64
2022/12/29 05:50:10;;;;;;;12.20;8.70;;;;;;;;;;755060;183;918398;-65
2022/12/29 05:52:36;;;;;;;13.38;8.05;;;;;;;;;;754886;186;827221;-64
2022/12/29 05:55:02;;;;;;;13.23;7.32;;;;;;;;;;759272;183;920551;-65
2022/12/29 05:57:28;;;;;;;15.00;7.90;;;;;;;;;;757390;186;919206;-68
2022/12/29 05:59:53;;;;;;;13.47;9.27;;;;;;;;;;755355;184;916149;-70
2022/12/29 06:02:19;;;;;;;11.75;7.97;;;;;;;;;;755473;183;920203;-68
2022/12/29 06:04:45;;;;;;;12.13;7.97;;;;;;;;;;762394;183;918454;-69
2022/12/29 06:07:11;;;;;;;23.13;13.40;;;;;;;;;;756074;184;920716;-64
2022/12/29 06:09:37;;;;;;;21.17;14.10;;;;;;;;;;756381;183;917053;-65
2022/12/29 06:12:03;;;;;;;17.47;11.40;;;;;;;;;;761152;183;917264;-65
2022/12/29 06:14:29;;;;;;;13.20;9.27;;;;;;;;;;761370;183;878903;-64
2022/12/29 06:16:55;;;;;;;12.67;8.60;;;;;;;;;;757238;183;920630;-64
2022/12/29 06:19:20;;;;;;;13.70;8.87;;;;;;;;;;761888;183;918132;-69
2022/12/29 06:21:46;;;;;;;13.03;7.73;;;;;;;;;;763957;183;919826;-64
2022/12/29 06:24:12;;;;;;;10.23;7.80;;;;;;;;;;759207;183;915995;-64
2022/12/29 06:26:39;;;;;;;11.75;8.05;;;;;;;;;;759835;183;920933;-69
2022/12/29 06:29:04;;;;;;;14.63;8.47;;;;;;;;;;758863;183;876110;-68
2022/12/29 06:31:30;;;;;;;12.47;8.70;;;;;;;;;;760367;183;919078;-70
2022/12/29 06:33:56;;;;;;;17.50;10.20;;;;;;;;;;754863;183;918679;-69
2022/12/29 06:36:21;;;;;;;18.83;10.20;;;;;;;;;;762758;183;919598;-69
2022/12/29 06:38:47;;;;;;;19.67;13.03;;;;;;;;;;761856;182;918674;-64
2022/12/29 06:41:13;;;;;;;16.00;10.33;;;;;;;;;;755318;183;922208;-64
2022/12/29 06:43:39;;;;;;;42.07;16.73;;;;;;;;;;762409;183;819162;-70
2022/12/29 06:46:05;;;;;;;23.50;14.30;;;;;;;;;;762239;182;1021548;-70
2022/12/29 06:48:31;;;;;;;48.53;27.57;;;;;;;;;;762723;183;889174;-69
2022/12/29 06:50:56;;;;;;;103.40;44.03;;;;;;;;;;759640;183;918580;-64
2022/12/29 06:53:22;;;;;;;32.53;20.37;;;;;;;;;;762419;183;918751;-70
2022/12/29 06:55:48;;;;;;;28.77;16.70;;;;;;;;;;759378;184;918812;-64
2022/12/29 06:58:14;;;;;;;29.00;15.57;;;;;;;;;;765959;183;918731;-68
2022/12/29 07:00:40;;;;;;;18.33;12.30;;;;;;;;;;769926;183;918926;-70
2022/12/29 07:03:06;;;;;;;17.30;11.07;;;;;;;;;;758789;183;914002;-65
2022/12/29 07:05:32;;;;;;;16.35;11.88;;;;;;;;;;755284;184;917909;-64
2022/12/29 07:07:57;;;;;;;17.90;10.60;;;;;;;;;;761719;183;918386;-68
2022/12/29 07:10:23;;;;;;;18.37;12.23;;;;;;;;;;761656;183;899089;-68
2022/12/29 07:12:49;;;;;;;23.77;16.23;;;;;;;;;;757640;183;919237;-69
2022/12/29 07:15:15;;;;;;;24.90;15.82;;;;;;;;;;760890;183;918348;-65
2022/12/29 07:17:41;;;;;;;20.83;15.70;;;;;;;;;;759495;184;917470;-64
2022/12/29 07:20:08;;;;;;;23.60;13.47;;;;;;;;;;756252;183;918435;-64
2022/12/29 07:22:34;;;;;;;22.50;14.40;;;;;;;;;;758738;184;918143;-64
2022/12/29 07:24:59;;;;;;;24.60;16.20;;;;;;;;;;761372;183;909977;-68
2022/12/29 07:27:25;;;;;;;20.67;13.60;;;;;;;;;;756100;185;918892;-68
2022/12/29 07:29:51;;;;;;;29.70;23.83;;;;;;;;;;756693;183;919247;-68
2022/12/29 07:32:17;;;;;;;19.70;15.30;;;;;;;;;;762167;183;919287;-69
2022/12/29 07:34:45;;;;;;;21.30;15.57;;;;;;;;;;758046;183;919212;-68
2022/12/29 07:37:09;;;;;;;24.10;15.73;;;;;;;;;;758056;183;918688;-68
2022/12/29 07:39:35;;;;;;;22.07;15.23;;;;;;;;;;762678;183;826037;-68
2022/12/29 07:42:01;;;;;;;18.77;13.60;;;;;;;;;;756206;183;938758;-69
2022/12/29 07:44:26;;;;;;;17.97;12.83;;;;;;;;;;759238;183;919441;-68
2022/12/29 07:46:52;;;;;;;22.80;15.80;;;;;;;;;;758441;183;919754;-69
2022/12/29 07:49:18;;;;;;;22.43;14.23;;;;;;;;;;768140;183;817448;-65
2022/12/29 07:51:44;;;;;;;24.00;15.53;;;;;;;;;;763408;183;618936;-64
2022/12/29 07:54:11;;;;;;;24.03;14.60;;;;;;;;;;760326;183;816799;-68
2022/12/29 07:56:36;;;;;;;25.93;15.70;;;;;;;;;;770041;182;917352;-64
2022/12/29 07:59:02;;;;;;;32.57;20.77;;;;;;;;;;757577;183;815251;-67
2022/12/29 08:01:27;;;;;;;24.30;15.37;;;;;;;;;;759562;183;853521;-63
2022/12/29 08:03:53;;;;;;;42.57;24.60;;;;;;;;;;767579;182;921515;-68
2022/12/29 08:06:20;;;;;;;43.10;19.43;;;;;;;;;;755738;182;943298;-64
2022/12/29 08:08:45;;;;;;;37.37;23.30;;;;;;;;;;754995;183;818171;-69
2022/12/29 08:11:11;;;;;;;46.00;25.10;;;;;;;;;;755207;183;917649;-69
2022/12/29 08:13:37;;;;;;;49.50;27.10;;;;;;;;;;766813;183;919637;-70
2022/12/29 08:16:02;;;;;;;46.63;27.90;;;;;;;;;;759507;183;921011;-66
2022/12/29 08:18:28;;;;;;;80.23;44.03;;;;;;;;;;752973;184;918449;-65
2022/12/29 08:20:54;;;;;;;70.93;42.33;;;;;;;;;;770527;183;816407;-71
2022/12/29 08:23:20;;;;;;;45.23;29.63;;;;;;;;;;754113;183;916674;-65
2022/12/29 08:25:46;;;;;;;41.85;27.62;;;;;;;;;;759562;183;919156;-72
2022/12/29 08:28:12;;;;;;;37.03;26.52;;;;;;;;;;762088;183;945770;-66
2022/12/29 08:30:37;;;;;;;38.23;26.43;;;;;;;;;;761961;183;912990;-64
2022/12/29 08:33:03;;;;;;;25.10;14.40;;;;;;;;;;756701;183;908155;-64
2022/12/29 08:35:29;;;;;;;13.38;9.65;;;;;;;;;;763004;183;784551;-63
2022/12/29 08:37:55;;;;;;;11.43;7.33;;;;;;;;;;763507;183;918384;-63
2022/12/29 08:40:21;;;;;;;12.13;8.20;;;;;;;;;;754513;183;919006;-63
2022/12/29 08:42:47;;;;;;;14.33;8.00;;;;;;;;;;752865;185;938943;-63
2022/12/29 08:45:13;;;;;;;13.27;7.47;;;;;;;;;;766187;183;617504;-63
2022/12/29 08:47:38;;;;;;;12.17;8.10;;;;;;;;;;764904;183;818241;-63
2022/12/29 08:50:04;;;;;;;14.20;8.68;;;;;;;;;;758726;183;922141;-70
2022/12/29 08:52:30;;;;;;;17.13;10.73;;;;;;;;;;760510;184;817403;-63
2022/12/29 08:54:56;;;;;;;13.10;8.20;;;;;;;;;;756294;183;918248;-68
2022/12/29 08:57:22;;;;;;;12.40;8.13;;;;;;;;;;761021;183;816603;-62
2022/12/29 08:59:48;;;;;;;13.67;8.03;;;;;;;;;;760758;185;918253;-69
2022/12/29 09:02:14;;;;;;;12.90;8.07;;;;;;;;;;762130;183;918693;-67
2022/12/29 09:04:39;;;;;;;14.70;8.50;;;;;;;;;;758244;184;918982;-69
2022/12/29 09:07:05;;;;;;;17.80;11.10;;;;;;;;;;756836;184;919344;-63
2022/12/29 09:09:31;;;;;;;12.50;8.60;;;;;;;;;;762065;184;919136;-68
2022/12/29 09:11:57;;;;;;;14.33;8.87;;;;;;;;;;761870;183;919067;-63
2022/12/29 09:14:23;;;;;;;13.52;8.63;;;;;;;;;;758363;184;917247;-63
2022/12/29 09:19:20;;;;;;;13.77;10.10;;;;;;;;;;755835;183;916887;-67
2022/12/29 09:21:46;;;;;;;16.50;9.23;;;;;;;;;;756103;184;918909;-67
2022/12/29 09:24:13;;;;;;;12.80;8.07;;;;;;;;;;756658;185;919519;-63
2022/12/29 09:26:38;;;;;;;14.73;9.18;;;;;;;;;;769126;183;919650;-63
2022/12/29 09:29:04;;;;;;;16.87;9.90;;;;;;;;;;756438;184;900934;-68
2022/12/29 09:31:30;;;;;;;16.70;9.53;;;;;;;;;;754824;184;913327;-67
2022/12/29 09:33:56;;;;;;;22.73;10.80;;;;;;;;;;763452;183;1016890;-67
2022/12/29 09:36:21;;;;;;;13.17;9.50;;;;;;;;;;759277;183;920592;-67
2022/12/29 09:38:47;;;;;;;12.50;8.67;;;;;;;;;;754715;184;1018964;-65
2022/12/29 09:41:13;;;;;;;13.93;9.40;;;;;;;;;;764417;184;918827;-62
2022/12/29 09:43:43;;;;;;;18.37;10.10;;;;;;;;;;757683;183;936009;-68
2022/12/29 09:46:19;;;;;;;13.47;8.87;;;;;;;;;;756627;184;918765;-62
2022/12/29 09:48:45;;;;;;;13.13;7.20;;;;;;;;;;755053;186;920884;-62
2022/12/29 09:51:10;;;;;;;11.52;8.55;;;;;;;;;;761125;185;919238;-67
2022/12/29 09:53:37;;;;;;;12.57;8.73;;;;;;;;;;753698;184;919069;-67
2022/12/29 09:56:03;;;;;;;14.00;9.17;;;;;;;;;;755239;186;810041;-69
2022/12/29 09:58:29;;;;;;;15.02;9.57;;;;;;;;;;752441;183;919346;-62
2022/12/29 10:01:05;;;;;;;16.07;9.03;;;;;;;;;;767162;183;919364;-64
2022/12/29 10:03:37;;;;;;;15.90;8.77;;;;;;;;;;760630;183;817136;-62
2022/12/29 10:06:08;;;;;;;15.23;9.60;;;;;;;;;;755912;184;918392;-62
2022/12/29 10:08:34;;;;;;;11.90;9.13;;;;;;;;;;756263;183;917540;-62
2022/12/29 10:11:02;;;;;;;14.17;8.63;;;;;;;;;;770630;182;915664;-62
2022/12/29 10:13:29;;;;;;;16.37;9.13;;;;;;;;;;760840;185;860411;-67
2022/12/29 10:15:58;;;;;;;14.93;10.30;;;;;;;;;;751273;185;919202;-62
2022/12/29 10:18:25;;;;;;;16.57;9.53;;;;;;;;;;761524;183;919124;-67
2022/12/29 10:20:53;;;;;;;12.93;8.23;;;;;;;;;;760047;185;919050;-62
2022/12/29 10:23:23;;;;;;;15.90;9.80;;;;;;;;;;754684;185;916321;-62
2022/12/29 10:25:49;;;;;;;13.20;9.37;;;;;;;;;;762475;182;919374;-69
2022/12/29 10:28:24;;;;;;;21.20;8.70;;;;;;;;;;759421;183;920120;-62
2022/12/29 10:30:52;;;;;;;24.83;10.37;;;;;;;;;;761838;185;919174;-68
2022/12/29 10:33:17;;;;;;;15.27;8.50;;;;;;;;;;752593;184;919167;-61
2022/12/29 10:35:43;;;;;;;16.70;8.87;;;;;;;;;;759391;183;918113;-67
2022/12/29 10:38:10;;;;;;;14.10;9.05;;;;;;;;;;756415;183;1011264;-61
2022/12/29 10:40:42;;;;;;;12.73;7.23;;;;;;;;;;760869;185;820411;-61
2022/12/29 10:43:13;;;;;;;12.40;7.90;;;;;;;;;;754775;185;918392;-67
2022/12/29 10:45:39;;;;;;;15.33;8.00;;;;;;;;;;757020;184;935952;-68
2022/12/29 10:48:05;;;;;;;13.68;8.43;;;;;;;;;;756042;184;920812;-67
2022/12/29 10:50:33;;;;;;;12.10;9.10;;;;;;;;;;771640;182;912838;-67
2022/12/29 10:52:58;;;;;;;11.77;8.52;;;;;;;;;;756158;183;918614;-61
2022/12/29 10:55:27;;;;;;;11.03;7.87;;;;;;;;;;754072;184;909615;-68
2022/12/29 10:57:51;;;;;;;14.23;8.60;;;;;;;;;;765247;183;917412;-61
2022/12/29 11:00:20;;;;;;;16.00;9.70;;;;;;;;;;756563;183;918717;-67
2022/12/29 11:02:44;;;;;;;15.60;8.57;;;;;;;;;;760875;183;1028338;-68
2022/12/29 11:05:26;;;;;;;16.60;8.97;;;;;;;;;;754142;184;919713;-62
2022/12/29 11:07:52;;;;;;;14.80;8.43;;;;;;;;;;761134;182;918295;-67
2022/12/29 11:10:19;;;;;;;16.07;7.30;;;;;;;;;;757699;183;918614;-61
2022/12/29 11:13:01;;;;;;;11.60;7.20;;;;;;;;;;755576;183;921699;-67
2022/12/29 11:15:27;;;;;;;12.77;7.70;;;;;;;;;;753473;183;920526;-68
2022/12/29 11:17:54;;;;;;;16.20;9.15;;;;;;;;;;754100;183;919336;-68
2022/12/29 11:20:27;;;;;;;15.10;9.03;;;;;;;;;;759383;183;916205;-68
2022/12/29 11:22:52;;;;;;;16.20;9.27;;;;;;;;;;755727;183;883821;-69
2022/12/29 11:25:18;;;;;;;19.80;10.00;;;;;;;;;;754492;183;919550;-61
2022/12/29 11:27:44;;;;;;;14.40;8.73;;;;;;;;;;759569;183;928678;-62
2022/12/29 11:30:12;;;;;;;15.30;9.10;;;;;;;;;;758301;184;785754;-61
2022/12/29 11:32:37;;;;;;;14.60;9.30;;;;;;;;;;760169;182;929188;-67
2022/12/29 11:35:03;;;;;;;15.70;8.73;;;;;;;;;;757575;183;919667;-68
2022/12/29 11:37:29;;;;;;;10.20;7.30;;;;;;;;;;759265;183;918747;-62
2022/12/29 11:39:57;;;;;;;10.00;6.07;;;;;;;;;;762268;183;915301;-61
2022/12/29 11:42:23;;;;;;;17.40;9.70;;;;;;;;;;757177;182;913237;-61
2022/12/29 11:44:49;;;;;;;18.08;8.63;;;;;;;;;;756581;183;920846;-67
2022/12/29 11:47:21;;;;;;;12.73;7.03;;;;;;;;;;755061;183;915582;-68
2022/12/29 11:49:49;;;;;;;13.33;7.73;;;;;;;;;;762663;183;921167;-61
2022/12/29 11:52:15;;;;;;;12.60;8.67;;;;;;;;;;759218;183;918477;-61
2022/12/29 11:54:42;;;;;;;16.17;10.43;;;;;;;;;;761481;183;920876;-61
2022/12/29 11:57:08;;;;;;;21.90;11.63;;;;;;;;;;759824;183;910069;-65
2022/12/29 11:59:34;;;;;;;17.00;9.77;;;;;;;;;;759466;183;918685;-61
2022/12/29 12:02:00;;;;;;;19.47;13.07;;;;;;;;;;760440;183;932596;-67
2022/12/29 12:04:27;;;;;;;18.60;11.20;;;;;;;;;;760937;183;901853;-68
2022/12/29 12:07:03;;;;;;;18.03;10.30;;;;;;;;;;755831;183;915308;-67
2022/12/29 12:09:30;;;;;;;20.27;11.47;;;;;;;;;;757019;183;919014;-69
2022/12/29 12:11:55;;;;;;;18.52;11.60;;;;;;;;;;757843;183;917847;-68
2022/12/29 12:14:25;;;;;;;17.20;12.73;;;;;;;;;;762498;183;822607;-62
2022/12/29 12:16:54;;;;;;;19.57;12.20;;;;;;;;;;759050;183;926353;-62
2022/12/29 12:19:21;;;;;;;11.27;8.13;;;;;;;;;;756062;183;922303;-61
2022/12/29 12:21:47;;;;;;;18.43;11.70;;;;;;;;;;757656;183;883487;-67
2022/12/29 12:24:15;;;;;;;17.70;11.60;;;;;;;;;;753947;184;920904;-62
2022/12/29 12:26:43;;;;;;;19.92;9.85;;;;;;;;;;759084;183;922844;-61
2022/12/29 12:29:08;;;;;;;21.10;10.60;;;;;;;;;;760666;183;920896;-61
2022/12/29 12:31:49;;;;;;;35.33;16.40;;;;;;;;;;763485;183;919204;-61
2022/12/29 12:34:18;;;;;;;25.07;11.60;;;;;;;;;;761801;185;821710;-62
2022/12/29 12:36:44;;;;;;;25.20;14.20;;;;;;;;;;765512;182;919360;-62
2022/12/29 12:39:13;;;;;;;21.30;12.90;;;;;;;;;;757731;183;812764;-68
2022/12/29 12:41:43;;;;;;;21.97;11.40;;;;;;;;;;751086;183;919313;-67
2022/12/29 12:44:11;;;;;;;17.48;12.63;;;;;;;;;;755621;183;918944;-61
2022/12/29 12:46:38;;;;;;;15.77;10.33;;;;;;;;;;752817;185;919156;-61
2022/12/29 12:49:08;;;;;;;20.83;11.40;;;;;;;;;;759556;183;920313;-61
2022/12/29 12:51:39;;;;;;;18.33;10.73;;;;;;;;;;764691;182;925661;-67
2022/12/29 12:54:15;;;;;;;25.57;13.87;;;;;;;;;;760033;183;918327;-62
2022/12/29 12:56:44;;;;;;;19.00;12.80;;;;;;;;;;754326;185;919406;-68
2022/12/29 12:59:13;;;;;;;19.33;13.63;;;;;;;;;;759545;183;816300;-62
2022/12/29 13:01:42;;;;;;;25.08;12.77;;;;;;;;;;757412;183;919376;-61
2022/12/29 13:04:13;;;;;;;22.02;13.40;;;;;;;;;;762894;183;918582;-67
2022/12/29 13:06:39;;;;;;;22.57;14.30;;;;;;;;;;762871;182;919790;-69
2022/12/29 13:09:08;;;;;;;25.50;15.40;;;;;;;;;;756700;183;921474;-68
2022/12/29 13:11:37;;;;;;;23.60;13.63;;;;;;;;;;757903;183;875415;-62
2022/12/29 13:14:07;;;;;;;20.73;15.27;;;;;;;;;;759245;183;920322;-63
2022/12/29 13:16:34;;;;;;;27.57;15.63;;;;;;;;;;758544;183;818808;-62
2022/12/29 13:19:05;;;;;;;27.13;14.97;;;;;;;;;;758348;183;919203;-63
2022/12/29 13:21:46;;;;;;;24.27;14.50;;;;;;;;;;760147;183;815419;-62
2022/12/29 13:24:19;;;;;;;23.70;14.57;;;;;;;;;;749853;183;915960;-62
2022/12/29 13:26:47;;;;;;;22.73;13.77;;;;;;;;;;753565;184;917638;-62
2022/12/29 13:29:14;;;;;;;22.17;14.77;;;;;;;;;;765249;183;818466;-62
2022/12/29 13:31:42;;;;;;;27.33;14.80;;;;;;;;;;757893;185;906158;-68
2022/12/29 13:34:10;;;;;;;24.37;15.27;;;;;;;;;;755405;183;919270;-68
2022/12/29 13:36:38;;;;;;;22.20;15.20;;;;;;;;;;757945;183;918226;-67
2022/12/29 13:39:06;;;;;;;23.15;15.48;;;;;;;;;;759115;183;992130;-68
2022/12/29 13:41:34;;;;;;;23.10;15.30;;;;;;;;;;757602;183;919063;-62
2022/12/29 13:44:00;;;;;;;20.80;14.10;;;;;;;;;;755574;183;866495;-68
2022/12/29 13:46:27;;;;;;;22.23;15.13;;;;;;;;;;760808;184;751428;-69
2022/12/29 13:48:55;;;;;;;25.33;13.40;;;;;;;;;;752757;185;813118;-68
2022/12/29 13:51:21;;;;;;;28.20;14.40;;;;;;;;;;751466;185;920586;-62
2022/12/29 13:53:53;;;;;;;21.87;13.07;;;;;;;;;;759120;181;920007;-67
2022/12/29 13:56:20;;;;;;;22.73;13.60;;;;;;;;;;761532;183;919361;-61
2022/12/29 13:59:03;;;;;;;19.43;11.50;;;;;;;;;;760381;184;918933;-61
2022/12/29 14:01:30;;;;;;;18.93;11.50;;;;;;;;;;758304;182;918274;-61
2022/12/29 14:03:56;;;;;;;20.93;13.00;;;;;;;;;;761188;183;922655;-67
2022/12/29 14:06:24;;;;;;;16.17;12.00;;;;;;;;;;754082;183;1020534;-61
2022/12/29 14:08:52;;;;;;;22.07;13.13;;;;;;;;;;762839;183;913500;-67
2022/12/29 14:11:18;;;;;;;17.77;11.20;;;;;;;;;;760030;183;921073;-62
2022/12/29 14:13:44;;;;;;;19.80;11.40;;;;;;;;;;758620;183;917107;-61
2022/12/29 14:16:11;;;;;;;20.07;12.83;;;;;;;;;;762234;183;934157;-67
2022/12/29 14:18:47;;;;;;;24.33;12.80;;;;;;;;;;758553;183;922844;-62
2022/12/29 14:21:23;;;;;;;20.57;10.87;;;;;;;;;;764954;183;823289;-61
2022/12/29 14:23:49;;;;;;;24.00;15.00;;;;;;;;;;755904;184;870511;-67
2022/12/29 14:26:15;;;;;;;22.65;12.73;;;;;;;;;;755674;184;922617;-67
2022/12/29 14:28:42;;;;;;;24.93;13.40;;;;;;;;;;759006;184;913098;-62
2022/12/29 14:31:23;;;;;;;21.07;14.67;;;;;;;;;;757402;183;920536;-62
2022/12/29 14:33:55;;;;;;;30.27;14.73;;;;;;;;;;756727;183;814973;-61
2022/12/29 14:36:20;;;;;;;19.67;13.30;;;;;;;;;;757258;183;916703;-67
2022/12/29 14:38:46;;;;;;;23.43;13.90;;;;;;;;;;760956;184;916708;-67
2022/12/29 14:41:15;;;;;;;25.47;12.23;;;;;;;;;;754419;184;919236;-67
2022/12/29 14:43:41;;;;;;;29.10;15.40;;;;;;;;;;754614;185;858907;-61
2022/12/29 14:46:07;;;;;;;27.83;14.90;;;;;;;;;;755488;183;908940;-61
2022/12/29 14:48:33;;;;;;;24.27;13.57;;;;;;;;;;768566;182;815439;-68
2022/12/29 14:50:59;;;;;;;20.70;12.13;;;;;;;;;;751899;184;919923;-67